createdAt,value
2022-11-14T00:00:48.816Z,12.30
2022-11-14T00:03:34.067Z,12.30
2022-11-14T00:06:19.831Z,13.07
2022-11-14T00:09:05.395Z,12.57
2022-11-14T00:11:51.102Z,11.93
2022-11-14T00:14:37.283Z,13.43
2022-11-14T00:17:23.040Z,11.50
2022-11-14T00:20:09.682Z,13.00
2022-11-14T00:22:55.304Z,13.33
2022-11-14T00:25:40.604Z,13.30
2022-11-14T00:28:26.351Z,12.10
2022-11-14T00:31:12.202Z,11.63
2022-11-14T00:33:57.466Z,12.93
2022-11-14T00:36:43.576Z,12.50
2022-11-14T00:39:29.077Z,12.27
2022-11-14T00:42:14.345Z,11.83
2022-11-14T00:45:00.316Z,12.40
2022-11-14T00:47:45.552Z,11.43
2022-11-14T00:50:31.220Z,12.53
2022-11-14T00:53:16.801Z,12.20
2022-11-14T00:56:03.198Z,12.57
2022-11-14T00:58:48.766Z,12.73
2022-11-14T01:01:34.387Z,13.53
2022-11-14T01:04:19.825Z,13.90
2022-11-14T01:07:05.536Z,13.60
2022-11-14T01:09:50.820Z,13.57
2022-11-14T01:12:36.369Z,14.93
2022-11-14T01:15:21.940Z,14.53
2022-11-14T01:18:07.726Z,15.63
2022-11-14T01:20:53.009Z,16.53
2022-11-14T01:23:39.125Z,17.50
2022-11-14T01:26:24.444Z,19.23
2022-11-14T01:29:09.947Z,19.07
2022-11-14T01:31:56.081Z,17.97
2022-11-14T01:34:41.629Z,20.87
2022-11-14T01:37:26.744Z,21.43
2022-11-14T01:40:12.879Z,21.63
2022-11-14T01:43:16.875Z,21.47
2022-11-14T01:46:05.477Z,22.70
2022-11-14T01:49:35.249Z,24.57
2022-11-14T01:52:22.185Z,25.33
2022-11-14T01:55:09.817Z,22.60
2022-11-14T01:57:57.064Z,25.40
2022-11-14T02:00:43.227Z,26.53
2022-11-14T02:03:29.018Z,27.57
2022-11-14T02:06:19.551Z,27.77
2022-11-14T02:09:06.924Z,29.27
2022-11-14T02:11:54.955Z,28.17
2022-11-14T02:14:42.187Z,29.90
2022-11-14T02:17:30.363Z,30.07
2022-11-14T02:20:28.816Z,29.60
2022-11-14T02:23:15.950Z,30.47
2022-11-14T02:26:01.349Z,31.13
2022-11-14T02:28:47.054Z,30.93
2022-11-14T02:31:32.607Z,29.83
2022-11-14T02:34:20.268Z,33.40
2022-11-14T02:37:06.785Z,33.07
2022-11-14T02:39:52.551Z,30.23
2022-11-14T02:42:38.334Z,31.33
2022-11-14T02:45:24.198Z,31.27
2022-11-14T02:48:10.182Z,32.07
2022-11-14T02:50:55.729Z,31.83
2022-11-14T02:53:41.218Z,33.23
2022-11-14T02:56:26.921Z,32.27
2022-11-14T02:59:12.176Z,32.13
2022-11-14T03:01:57.852Z,31.20
2022-11-14T03:04:43.358Z,30.60
2022-11-14T03:07:29.127Z,31.47
2022-11-14T03:10:15.091Z,33.50
2022-11-14T03:13:00.314Z,31.30
2022-11-14T03:15:45.967Z,29.53
2022-11-14T03:18:31.591Z,30.97
2022-11-14T03:21:21.786Z,30.47
2022-11-14T03:24:07.286Z,29.20
2022-11-14T03:26:52.778Z,30.87
2022-11-14T03:29:38.430Z,31.10
2022-11-14T03:32:24.202Z,30.17
2022-11-14T03:35:09.934Z,29.10
2022-11-14T03:37:56.496Z,29.20
2022-11-14T03:40:43.074Z,29.30
2022-11-14T03:43:32.420Z,29.77
2022-11-14T03:46:18.269Z,29.57
2022-11-14T03:49:03.858Z,26.87
2022-11-14T03:51:49.015Z,27.73
2022-11-14T03:54:34.584Z,29.77
2022-11-14T03:57:19.830Z,28.87
2022-11-14T04:00:06.023Z,26.90
2022-11-14T04:02:51.782Z,27.23
2022-11-14T04:05:37.206Z,27.97
2022-11-14T04:08:22.892Z,28.43
2022-11-14T04:11:08.615Z,27.33
2022-11-14T04:13:53.875Z,25.77
2022-11-14T04:16:39.615Z,25.40
2022-11-14T04:19:25.122Z,26.67
2022-11-14T04:22:11.261Z,27.47
2022-11-14T04:24:56.815Z,25.97
2022-11-14T04:27:43.030Z,24.90
2022-11-14T04:30:33.486Z,24.93
2022-11-14T04:33:19.899Z,24.53
2022-11-14T04:36:05.536Z,26.87
2022-11-14T04:38:50.852Z,27.60
2022-11-14T04:41:36.413Z,25.00
2022-11-14T04:44:22.067Z,24.17
2022-11-14T04:47:07.992Z,24.57
2022-11-14T04:49:53.145Z,25.60
2022-11-14T04:52:38.740Z,26.03
2022-11-14T04:55:24.087Z,26.00
2022-11-14T04:58:09.622Z,23.73
2022-11-14T05:00:57.909Z,24.17
2022-11-14T05:03:43.281Z,24.00
2022-11-14T05:06:28.959Z,24.70
2022-11-14T05:09:14.613Z,23.23
2022-11-14T05:12:00.115Z,22.03
2022-11-14T05:14:45.746Z,19.83
2022-11-14T05:17:31.307Z,22.57
2022-11-14T05:20:17.278Z,24.13
2022-11-14T05:23:03.050Z,23.00
2022-11-14T05:25:58.906Z,24.17
2022-11-14T05:28:44.497Z,23.97
2022-11-14T05:31:30.016Z,23.33
2022-11-14T05:34:15.583Z,24.70
2022-11-14T05:37:01.105Z,25.10
2022-11-14T05:39:47.041Z,26.83
2022-11-14T05:42:32.268Z,27.13
2022-11-14T05:45:17.941Z,26.50
2022-11-14T05:48:03.590Z,26.37
2022-11-14T05:50:48.939Z,24.83
2022-11-14T05:53:34.951Z,24.90
2022-11-14T05:56:20.866Z,26.30
2022-11-14T05:59:06.575Z,25.10
2022-11-14T06:01:52.117Z,23.83
2022-11-14T06:04:37.729Z,22.77
2022-11-14T06:07:23.357Z,20.63
2022-11-14T06:10:09.137Z,21.33
2022-11-14T06:12:54.806Z,23.60
2022-11-14T06:15:40.116Z,23.17
2022-11-14T06:18:25.775Z,20.80
2022-11-14T06:21:18.549Z,24.43
2022-11-14T06:24:05.017Z,24.40
2022-11-14T06:26:52.604Z,24.20
2022-11-14T06:29:38.502Z,24.63
2022-11-14T06:32:24.282Z,25.73
2022-11-14T06:35:09.780Z,25.03
2022-11-14T06:37:55.071Z,26.17
2022-11-14T06:40:40.395Z,27.17
2022-11-14T06:43:25.897Z,25.03
2022-11-14T06:46:13.983Z,25.80
2022-11-14T06:48:59.740Z,26.40
2022-11-14T06:51:45.548Z,23.43
2022-11-14T06:54:31.235Z,23.03
2022-11-14T06:57:16.631Z,26.43
2022-11-14T07:00:02.342Z,25.60
2022-11-14T07:02:48.788Z,27.40
2022-11-14T07:05:34.463Z,27.57
2022-11-14T07:08:21.345Z,30.20
2022-11-14T07:11:11.456Z,27.67
2022-11-14T07:13:58.496Z,30.77
2022-11-14T07:16:43.880Z,31.00
2022-11-14T07:19:29.542Z,31.70
2022-11-14T07:22:15.095Z,32.83
2022-11-14T07:25:00.648Z,33.50
2022-11-14T07:27:46.125Z,33.07
2022-11-14T07:30:31.610Z,33.33
2022-11-14T07:33:17.172Z,32.77
2022-11-14T07:36:02.687Z,33.30
2022-11-14T07:38:48.129Z,32.97
2022-11-14T07:41:33.658Z,33.80
2022-11-14T07:44:19.250Z,32.93
2022-11-14T07:47:05.016Z,33.63
2022-11-14T07:49:50.511Z,32.20
2022-11-14T07:52:36.236Z,32.07
2022-11-14T07:55:22.066Z,31.00
2022-11-14T07:58:07.518Z,32.73
2022-11-14T08:00:53.144Z,32.07
2022-11-14T08:03:43.918Z,31.20
2022-11-14T08:06:31.050Z,31.13
2022-11-14T08:09:16.277Z,33.60
2022-11-14T08:12:01.954Z,32.60
2022-11-14T08:14:47.709Z,30.47
2022-11-14T08:17:33.163Z,32.63
2022-11-14T08:20:18.818Z,31.43
2022-11-14T08:23:05.853Z,30.63
2022-11-14T08:25:51.570Z,31.90
2022-11-14T08:28:37.089Z,31.57
2022-11-14T08:31:22.663Z,29.93
2022-11-14T08:34:08.192Z,32.37
2022-11-14T08:36:53.783Z,29.73
2022-11-14T08:39:39.139Z,30.30
2022-11-14T08:42:24.691Z,30.27
2022-11-14T08:45:10.480Z,30.37
2022-11-14T08:47:56.044Z,27.50
2022-11-14T08:50:41.492Z,27.87
2022-11-14T08:53:27.099Z,30.00
2022-11-14T08:56:12.620Z,28.30
2022-11-14T08:58:58.118Z,26.40
2022-11-14T09:01:43.706Z,27.27
2022-11-14T09:04:29.329Z,27.37
2022-11-14T09:07:15.313Z,26.53
2022-11-14T09:10:01.167Z,24.70
2022-11-14T09:12:46.490Z,25.80
2022-11-14T09:15:33.825Z,26.10
2022-11-14T09:18:19.170Z,25.37
2022-11-14T09:21:06.948Z,26.10
2022-11-14T09:23:56.165Z,25.77
2022-11-14T09:26:44.292Z,24.83
2022-11-14T09:29:29.920Z,24.33
2022-11-14T09:32:15.410Z,23.47
2022-11-14T09:35:00.874Z,22.07
2022-11-14T09:37:46.427Z,22.63
2022-11-14T09:40:46.201Z,21.70
2022-11-14T09:43:50.515Z,18.47
2022-11-14T09:46:50.096Z,18.47
2022-11-14T09:49:41.677Z,18.03
2022-11-14T09:52:47.615Z,18.23
2022-11-14T09:55:37.257Z,18.07
2022-11-14T09:58:23.087Z,17.67
2022-11-14T10:01:26.845Z,19.60
2022-11-14T10:04:44.806Z,17.07
2022-11-14T10:07:45.498Z,18.73
2022-11-14T10:10:46.073Z,17.97
2022-11-14T10:13:56.161Z,18.47
2022-11-14T10:17:10.191Z,16.97
2022-11-14T10:20:23.600Z,17.63
2022-11-14T10:23:35.996Z,17.20
2022-11-14T10:26:30.162Z,17.83
2022-11-14T10:29:39.091Z,17.73
2022-11-14T10:32:40.518Z,21.00
2022-11-14T10:35:35.655Z,19.27
2022-11-14T10:38:31.248Z,20.03
2022-11-14T10:41:34.750Z,18.30
2022-11-14T10:44:32.922Z,18.13
2022-11-14T10:47:22.615Z,18.20
2022-11-14T10:50:21.449Z,17.27
2022-11-14T10:53:23.673Z,17.37
2022-11-14T10:56:12.910Z,18.30
2022-11-14T10:58:58.448Z,18.83
2022-11-14T11:01:46.659Z,16.40
2022-11-14T11:04:36.931Z,16.63
2022-11-14T11:07:44.297Z,16.10
2022-11-14T11:10:50.972Z,16.50
2022-11-14T11:13:53.835Z,15.67
2022-11-14T11:16:39.061Z,14.27
2022-11-14T11:19:26.602Z,15.57
2022-11-14T11:22:37.200Z,15.17
2022-11-14T11:25:29.264Z,16.07
2022-11-14T11:28:16.069Z,15.10
2022-11-14T11:31:10.599Z,15.03
2022-11-14T11:33:55.927Z,14.77
2022-11-14T11:36:47.302Z,14.03
2022-11-14T11:39:37.983Z,15.73
2022-11-14T11:43:31.775Z,16.60
2022-11-14T11:45:50.211Z,18.07
2022-11-14T11:48:40.549Z,16.20
2022-11-14T11:51:27.660Z,15.87
2022-11-14T11:54:18.548Z,14.87
2022-11-14T11:57:13.999Z,15.47
2022-11-14T12:00:14.162Z,15.77
2022-11-14T12:03:00.330Z,15.33
2022-11-14T12:06:06.958Z,15.73
2022-11-14T12:09:07.672Z,15.47
2022-11-14T12:12:00.549Z,15.07
2022-11-14T12:15:13.408Z,15.87
2022-11-14T12:18:16.829Z,16.23
2022-11-14T12:21:41.570Z,17.57
2022-11-14T12:25:14.355Z,16.87
2022-11-14T12:28:13.037Z,15.73
2022-11-14T12:31:03.573Z,16.13
2022-11-14T12:34:01.210Z,15.17
2022-11-14T12:36:47.272Z,16.00
2022-11-14T12:39:33.130Z,16.13
2022-11-14T12:42:21.749Z,14.77
2022-11-14T12:45:41.315Z,14.63
2022-11-14T12:48:27.179Z,14.50
2022-11-14T12:51:25.291Z,13.53
2022-11-14T12:54:46.578Z,15.73
2022-11-14T12:57:51.748Z,15.50
2022-11-14T13:00:46.320Z,14.63
2022-11-14T13:04:03.779Z,15.33
2022-11-14T13:07:28.607Z,13.23
2022-11-14T13:10:30.126Z,10.70
2022-11-14T13:13:35.463Z,10.97
2022-11-14T13:16:45.020Z,10.63
2022-11-14T13:19:49.003Z,11.40
2022-11-14T13:22:43.441Z,12.17
2022-11-14T13:25:28.831Z,13.17
2022-11-14T13:28:36.314Z,13.00
2022-11-14T13:31:24.248Z,15.50
2022-11-14T13:34:46.239Z,14.60
2022-11-14T13:37:55.713Z,15.40
2022-11-14T13:41:05.710Z,14.97
2022-11-14T13:44:14.122Z,15.67
2022-11-14T13:47:25.717Z,16.50
2022-11-14T13:50:24.795Z,15.37
2022-11-14T13:53:20.748Z,17.00
2022-11-14T13:56:24.551Z,15.63
2022-11-14T13:59:36.753Z,16.97
2022-11-14T14:02:56.030Z,17.03
2022-11-14T14:06:22.696Z,15.50
2022-11-14T14:09:15.792Z,16.20
2022-11-14T14:12:52.210Z,16.33
2022-11-14T14:16:05.849Z,15.83
2022-11-14T14:19:00.148Z,16.03
2022-11-14T14:22:10.388Z,15.20
2022-11-14T14:25:24.667Z,16.00
2022-11-14T14:28:25.268Z,14.77
2022-11-14T14:31:16.545Z,14.97
2022-11-14T14:34:01.863Z,14.70
2022-11-14T14:36:52.669Z,14.43
2022-11-14T14:39:38.003Z,14.93
2022-11-14T14:42:24.257Z,15.47
2022-11-14T14:45:19.553Z,14.03
2022-11-14T14:48:12.803Z,15.57
2022-11-14T14:50:59.840Z,14.80
2022-11-14T14:53:53.656Z,15.30
2022-11-14T14:56:38.850Z,15.70
2022-11-14T14:59:26.399Z,14.83
2022-11-14T15:02:16.500Z,14.03
2022-11-14T15:05:02.836Z,16.43
2022-11-14T15:07:50.116Z,15.77
2022-11-14T15:10:36.194Z,16.13
2022-11-14T15:13:25.268Z,15.77
2022-11-14T15:16:11.415Z,14.83
2022-11-14T15:18:58.167Z,15.30
2022-11-14T15:21:44.017Z,15.40
2022-11-14T15:24:29.335Z,14.43
2022-11-14T15:27:17.569Z,15.70
2022-11-14T15:30:07.013Z,14.80
2022-11-14T15:32:55.200Z,16.90
2022-11-14T15:35:41.155Z,16.17
2022-11-14T15:38:43.520Z,15.50
2022-11-14T15:41:31.081Z,15.97
2022-11-14T15:44:30.555Z,16.57
2022-11-14T15:47:30.247Z,17.77
2022-11-14T15:50:15.472Z,18.00
2022-11-14T15:53:04.734Z,17.90
2022-11-14T15:55:50.073Z,18.37
2022-11-14T15:58:35.641Z,18.17
2022-11-14T16:01:26.058Z,18.50
2022-11-14T16:04:16.280Z,19.63
2022-11-14T16:07:01.955Z,19.00
2022-11-14T16:09:47.832Z,19.73
2022-11-14T16:12:33.640Z,21.33
2022-11-14T16:15:20.506Z,21.43
2022-11-14T16:18:06.495Z,21.23
2022-11-14T16:20:52.074Z,21.00
2022-11-14T16:23:39.353Z,20.43
2022-11-14T16:26:26.388Z,21.37
2022-11-14T16:29:12.168Z,21.00
2022-11-14T16:31:57.429Z,20.40
2022-11-14T16:34:42.917Z,20.63
2022-11-14T16:37:28.252Z,20.43
2022-11-14T16:40:23.376Z,18.97
2022-11-14T16:43:13.187Z,19.47
2022-11-14T16:45:58.896Z,20.03
2022-11-14T16:48:44.346Z,20.63
2022-11-14T16:54:35.214Z,22.07
2022-11-14T16:57:20.944Z,21.67
2022-11-14T17:00:12.406Z,24.87
2022-11-14T17:02:58.226Z,21.67
2022-11-14T17:05:52.062Z,22.73
2022-11-14T17:08:37.945Z,22.40
2022-11-14T17:11:24.352Z,21.20
2022-11-14T17:14:09.636Z,20.70
2022-11-14T17:16:55.363Z,21.50
2022-11-14T17:19:46.012Z,22.27
2022-11-14T17:22:31.970Z,22.43
2022-11-14T17:25:17.537Z,24.30
2022-11-14T17:28:02.928Z,24.53
2022-11-14T17:30:48.619Z,25.83
2022-11-14T17:33:34.777Z,27.73
2022-11-14T17:36:20.692Z,25.93
2022-11-14T17:39:06.185Z,25.40
2022-11-14T17:41:51.692Z,27.60
2022-11-14T17:44:37.297Z,27.40
2022-11-14T17:47:22.917Z,29.73
2022-11-14T17:50:09.529Z,30.03
2022-11-14T17:52:54.739Z,29.50
2022-11-14T17:55:40.486Z,30.73
2022-11-14T17:58:30.797Z,28.13
2022-11-14T18:01:18.146Z,31.20
2022-11-14T18:04:06.390Z,29.03
2022-11-14T18:06:52.640Z,29.57
2022-11-14T18:09:38.967Z,28.33
2022-11-14T18:12:24.534Z,28.40
2022-11-14T18:15:10.405Z,28.70
2022-11-14T18:17:56.062Z,31.30
2022-11-14T18:20:41.636Z,31.93
2022-11-14T18:23:27.265Z,30.63
2022-11-14T18:26:15.361Z,29.50
2022-11-14T18:29:02.324Z,29.57
2022-11-14T18:31:48.459Z,30.00
2022-11-14T18:34:37.054Z,29.80
2022-11-14T18:37:23.295Z,29.97
2022-11-14T18:40:16.127Z,29.33
2022-11-14T18:43:02.261Z,29.10
2022-11-14T18:45:47.894Z,30.67
2022-11-14T18:48:34.049Z,31.17
2022-11-14T18:51:22.440Z,32.80
2022-11-14T18:54:14.251Z,31.47
2022-11-14T18:57:00.475Z,31.97
2022-11-14T18:59:45.734Z,31.60
2022-11-14T19:02:31.375Z,31.27
2022-11-14T19:05:16.957Z,31.27
2022-11-14T19:08:03.314Z,33.57
2022-11-14T19:10:48.900Z,31.73
2022-11-14T19:13:34.917Z,32.43
2022-11-14T19:16:20.463Z,33.13
2022-11-14T19:19:07.833Z,31.17
2022-11-14T19:21:53.274Z,32.03
2022-11-14T19:24:43.030Z,32.00
2022-11-14T19:27:28.508Z,32.40
2022-11-14T19:30:15.976Z,33.73
2022-11-14T19:33:04.663Z,32.40
2022-11-14T19:35:50.729Z,33.00
2022-11-14T19:38:36.106Z,29.90
2022-11-14T19:41:24.799Z,32.23
2022-11-14T19:44:10.156Z,33.33
2022-11-14T19:46:55.890Z,31.33
2022-11-14T19:49:42.794Z,30.27
2022-11-14T19:52:28.364Z,30.37
2022-11-14T19:55:13.647Z,33.70
2022-11-14T19:57:59.758Z,33.13
2022-11-14T20:00:45.081Z,31.10
2022-11-14T20:03:31.113Z,32.17
2022-11-14T20:06:21.851Z,33.33
2022-11-14T20:09:09.791Z,33.13
2022-11-14T20:11:55.225Z,31.83
2022-11-14T20:14:40.805Z,34.63
2022-11-14T20:17:26.526Z,32.07
2022-11-14T20:20:11.913Z,32.97
2022-11-14T20:22:57.358Z,33.97
2022-11-14T20:25:43.478Z,32.13
2022-11-14T20:28:28.983Z,33.40
2022-11-14T20:31:17.636Z,32.37
2022-11-14T20:34:03.372Z,33.47
2022-11-14T20:37:09.924Z,34.33
2022-11-14T20:39:55.611Z,33.30
2022-11-14T20:42:41.117Z,34.37
2022-11-14T20:45:27.141Z,34.87
2022-11-14T20:48:12.624Z,34.70
2022-11-14T20:51:25.357Z,35.77
2022-11-14T20:54:11.029Z,37.10
2022-11-14T20:56:56.847Z,34.17
2022-11-14T20:59:42.281Z,32.97
2022-11-14T21:02:27.610Z,33.17
2022-11-14T21:05:12.935Z,33.33
2022-11-14T21:07:58.450Z,31.30
2022-11-14T21:10:50.738Z,31.93
2022-11-14T21:13:56.693Z,32.87
2022-11-14T21:16:42.152Z,29.47
2022-11-14T21:19:29.255Z,32.20
2022-11-14T21:22:15.003Z,30.57
2022-11-14T21:25:01.861Z,31.37
2022-11-14T21:27:47.616Z,30.13
2022-11-14T21:30:34.620Z,31.00
2022-11-14T21:33:20.094Z,30.50
2022-11-14T21:36:22.851Z,30.27
2022-11-14T21:39:15.021Z,29.50
2022-11-14T21:42:00.986Z,29.37
2022-11-14T21:44:46.529Z,32.23
2022-11-14T21:47:33.496Z,31.70
2022-11-14T21:50:19.033Z,30.90
2022-11-14T21:53:15.860Z,30.97
2022-11-14T21:56:15.310Z,31.00
2022-11-14T21:59:15.123Z,32.30
2022-11-14T22:02:20.786Z,32.07
2022-11-14T22:05:06.918Z,32.53
2022-11-14T22:07:52.369Z,33.07
2022-11-14T22:10:37.804Z,34.60
2022-11-14T22:13:23.245Z,34.83
2022-11-14T22:16:10.271Z,34.23
2022-11-14T22:19:00.448Z,34.10
2022-11-14T22:21:49.963Z,37.27
2022-11-14T22:24:35.571Z,36.50
2022-11-14T22:27:21.106Z,35.17
2022-11-14T22:30:06.957Z,35.47
2022-11-14T22:32:52.152Z,37.07
2022-11-14T22:35:37.431Z,35.60
2022-11-14T22:38:23.005Z,35.43
2022-11-14T22:41:27.620Z,36.50
2022-11-14T22:44:16.166Z,36.90
2022-11-14T22:47:01.751Z,37.90
2022-11-14T22:49:47.137Z,38.10
2022-11-14T22:52:32.793Z,37.13
2022-11-14T22:55:18.546Z,38.90
2022-11-14T22:58:03.893Z,37.47
2022-11-14T23:00:50.058Z,37.47
2022-11-14T23:03:35.989Z,38.93
2022-11-14T23:06:22.351Z,40.10
2022-11-14T23:09:07.706Z,38.50
2022-11-14T23:11:53.239Z,39.30
2022-11-14T23:14:38.744Z,38.80
2022-11-14T23:17:24.267Z,39.23
2022-11-14T23:20:16.091Z,39.17
2022-11-14T23:23:02.148Z,40.50
2022-11-14T23:25:47.739Z,39.33
2022-11-14T23:28:33.323Z,39.13
2022-11-14T23:31:19.179Z,41.53
2022-11-14T23:34:04.582Z,40.03
2022-11-14T23:36:49.840Z,39.67
2022-11-14T23:39:35.405Z,39.50
2022-11-14T23:42:20.932Z,39.00
2022-11-14T23:45:06.979Z,37.33
2022-11-14T23:47:52.541Z,39.10
2022-11-14T23:50:38.265Z,40.63
2022-11-14T23:53:24.383Z,40.27
2022-11-14T23:56:13.352Z,41.80
2022-11-14T23:58:58.880Z,40.30
